Time,TemperatureF,DewpointF,PressureIn,WindDirection,WindDirectionDegrees,WindSpeedMPH,WindSpeedGustMPH,Humidity,HourlyPrecipIn,Conditions,Clouds,dailyrainin,SoftwareType,DateUTC
2013-07-19 00:12:00,79.2,71.7,29.98,ESE,112,2.2,-999.0,78,-99.99,,,0.00,Acu-Link.com,2013-07-19 04:12:00,
2013-07-19 00:27:00,79.0,71.5,29.98,SSW,202,2.2,-999.0,78,-99.99,,,0.00,Acu-Link.com,2013-07-19 04:27:00,
2013-07-19 00:42:00,78.6,71.1,29.98,SE,135,1.7,-999.0,78,-99.99,,,0.00,Acu-Link.com,2013-07-19 04:42:00,
2013-07-19 00:57:00,78.4,71.0,29.98,SW,225,1.7,-999.0,78,-99.99,,,0.00,Acu-Link.com,2013-07-19 04:57:00,
2013-07-19 01:12:00,78.3,70.5,29.97,SW,225,3.7,-999.0,77,-99.99,,,0.00,Acu-Link.com,2013-07-19 05:12:00,
2013-07-19 01:28:00,78.1,70.3,29.97,East,90,1.7,-999.0,77,-99.99,,,0.00,Acu-Link.com,2013-07-19 05:28:00,
2013-07-19 01:43:00,77.7,69.9,29.98,ENE,67,2.2,-999.0,77,-99.99,,,0.00,Acu-Link.com,2013-07-19 05:43:00,
2013-07-19 01:58:00,77.5,70.1,29.97,South,180,1.1,-999.0,78,-99.99,,,0.00,Acu-Link.com,2013-07-19 05:58:00,
2013-07-19 02:13:00,77.2,70.2,29.98,SSE,157,1.7,-999.0,79,-99.99,,,0.00,Acu-Link.com,2013-07-19 06:13:00,
2013-07-19 02:29:00,77.0,70.0,29.97,East,90,0.0,-999.0,79,-99.99,,,0.00,Acu-Link.com,2013-07-19 06:29:00,
2013-07-19 02:44:00,76.8,70.1,29.97,ESE,112,0.0,-999.0,80,-99.99,,,0.00,Acu-Link.com,2013-07-19 06:44:00,
2013-07-19 02:59:00,76.5,69.9,29.97,SW,225,1.1,-999.0,80,-99.99,,,0.00,Acu-Link.com,2013-07-19 06:59:00,
2013-07-19 03:14:00,76.3,70.0,29.97,NNW,337,0.0,-999.0,81,-99.99,,,0.00,Acu-Link.com,2013-07-19 07:14:00,
2013-07-19 03:30:00,76.3,70.0,29.96,South,180,1.7,-999.0,81,-99.99,,,0.00,Acu-Link.com,2013-07-19 07:30:00,
2013-07-19 03:45:00,76.1,70.2,29.96,SSW,202,0.0,-999.0,82,-99.99,,,0.00,Acu-Link.com,2013-07-19 07:45:00,
2013-07-19 04:00:00,75.7,70.2,29.96,SE,135,1.7,-999.0,83,-99.99,,,0.00,Acu-Link.com,2013-07-19 08:00:00,
2013-07-19 04:15:00,75.7,70.2,29.96,South,180,0.0,-999.0,83,-99.99,,,0.00,Acu-Link.com,2013-07-19 08:15:00,
2013-07-19 04:30:00,75.7,70.2,29.96,West,270,0.0,-999.0,83,-99.99,,,0.00,Acu-Link.com,2013-07-19 08:30:00,
2013-07-19 04:46:00,75.4,69.9,29.96,SE,135,1.7,-999.0,83,-99.99,,,0.00,Acu-Link.com,2013-07-19 08:46:00,
2013-07-19 05:01:00,75.2,70.0,29.96,SSE,157,0.0,-999.0,84,-99.99,,,0.00,Acu-Link.com,2013-07-19 09:01:00,
2013-07-19 05:16:00,75.0,70.2,29.96,ESE,112,0.0,-999.0,85,-99.99,,,0.00,Acu-Link.com,2013-07-19 09:16:00,
2013-07-19 05:31:00,75.0,70.5,29.96,South,180,1.7,-999.0,86,-99.99,,,0.00,Acu-Link.com,2013-07-19 09:31:00,
2013-07-19 05:46:00,74.7,70.2,29.97,SSW,202,0.0,-999.0,86,-99.99,,,0.00,Acu-Link.com,2013-07-19 09:46:00,
2013-07-19 06:02:00,74.8,70.3,29.97,SSW,202,0.0,-999.0,86,-99.99,,,0.00,Acu-Link.com,2013-07-19 10:02:00,
2013-07-19 06:17:00,75.2,70.7,29.96,West,270,0.0,-999.0,86,-99.99,,,0.00,Acu-Link.com,2013-07-19 10:17:00,
2013-07-19 06:32:00,75.6,71.1,29.96,SW,225,0.0,-999.0,86,-99.99,,,0.00,Acu-Link.com,2013-07-19 10:32:00,
2013-07-19 06:47:00,77.0,72.5,29.97,NNW,337,0.0,-999.0,86,-99.99,,,0.00,Acu-Link.com,2013-07-19 10:47:00,
2013-07-19 07:02:00,78.8,73.2,29.97,West,270,2.2,-999.0,83,-99.99,,,0.00,Acu-Link.com,2013-07-19 11:02:00,
2013-07-19 07:18:00,80.8,74.0,29.97,West,270,2.7,-999.0,80,-99.99,,,0.00,Acu-Link.com,2013-07-19 11:18:00,
2013-07-19 07:33:00,82.0,74.4,29.97,WSW,247,2.2,-999.0,78,-99.99,,,0.00,Acu-Link.com,2013-07-19 11:33:00,
2013-07-19 07:48:00,84.7,75.5,29.96,SW,225,1.7,-999.0,74,-99.99,,,0.00,Acu-Link.com,2013-07-19 11:48:00,
2013-07-19 08:03:00,86.9,76.3,29.97,SSW,202,1.7,-999.0,71,-99.99,,,0.00,Acu-Link.com,2013-07-19 12:03:00,
2013-07-19 08:18:00,88.3,76.8,29.97,SW,225,1.7,-999.0,69,-99.99,,,0.00,Acu-Link.com,2013-07-19 12:18:00,
2013-07-19 08:34:00,90.0,77.5,29.97,West,270,0.0,-999.0,67,-99.99,,,0.00,Acu-Link.com,2013-07-19 12:34:00,
2013-07-19 08:49:00,92.3,78.3,29.97,SE,135,2.2,-999.0,64,-99.99,,,0.00,Acu-Link.com,2013-07-19 12:49:00,
2013-07-19 09:04:00,93.4,78.4,29.96,West,270,2.2,-999.0,62,-99.99,,,0.00,Acu-Link.com,2013-07-19 13:04:00,
2013-07-19 09:19:00,95.0,79.4,29.96,West,270,2.7,-999.0,61,-99.99,,,0.00,Acu-Link.com,2013-07-19 13:19:00,
2013-07-19 09:35:00,93.0,77.5,29.96,SW,225,4.2,-999.0,61,-99.99,,,0.00,Acu-Link.com,2013-07-19 13:35:00,
2013-07-19 09:50:00,91.0,77.1,29.96,SW,225,4.2,-999.0,64,-99.99,,,0.00,Acu-Link.com,2013-07-19 13:50:00,
2013-07-19 10:05:00,91.2,77.3,29.96,NE,45,3.7,-999.0,64,-99.99,,,0.00,Acu-Link.com,2013-07-19 14:05:00,
2013-07-19 10:20:00,92.3,77.8,29.96,SW,225,2.7,-999.0,63,-99.99,,,0.00,Acu-Link.com,2013-07-19 14:20:00,
2013-07-19 10:35:00,92.7,78.2,29.96,NNE,22,2.7,-999.0,63,-99.99,,,0.00,Acu-Link.com,2013-07-19 14:35:00,
2013-07-19 10:51:00,93.0,77.5,29.95,ENE,67,1.7,-999.0,61,-99.99,,,0.00,Acu-Link.com,2013-07-19 14:51:00,
2013-07-19 11:06:00,92.8,76.8,29.95,ENE,67,2.7,-999.0,60,-99.99,,,0.00,Acu-Link.com,2013-07-19 15:06:00,
2013-07-19 11:21:00,94.3,78.2,29.95,West,270,5.3,-999.0,60,-99.99,,,0.00,Acu-Link.com,2013-07-19 15:21:00,
2013-07-19 11:37:00,94.1,78.0,29.95,SSW,202,4.2,-999.0,60,-99.99,,,0.00,Acu-Link.com,2013-07-19 15:37:00,
2013-07-19 11:52:00,94.6,77.0,29.94,NNE,22,3.7,-999.0,57,-99.99,,,0.00,Acu-Link.com,2013-07-19 15:52:00,
2013-07-19 12:07:00,95.2,77.5,29.94,SSW,202,3.2,-999.0,57,-99.99,,,0.00,Acu-Link.com,2013-07-19 16:07:00,
2013-07-19 12:22:00,95.7,78.5,29.94,SE,135,2.7,-999.0,58,-99.99,,,0.00,Acu-Link.com,2013-07-19 16:22:00,
2013-07-19 12:37:00,95.5,76.7,29.94,SSE,157,5.3,-999.0,55,-99.99,,,0.00,Acu-Link.com,2013-07-19 16:37:00,
2013-07-19 12:53:00,95.9,77.6,29.93,WSW,247,1.1,-999.0,56,-99.99,,,0.00,Acu-Link.com,2013-07-19 16:53:00,
2013-07-19 13:08:00,96.4,77.5,29.93,SW,225,6.8,-999.0,55,-99.99,,,0.00,Acu-Link.com,2013-07-19 17:08:00,
2013-07-19 13:23:00,96.1,76.7,29.92,SSW,202,7.3,-999.0,54,-99.99,,,0.00,Acu-Link.com,2013-07-19 17:23:00,
2013-07-19 13:38:00,96.4,75.9,29.92,SSW,202,2.2,-999.0,52,-99.99,,,0.00,Acu-Link.com,2013-07-19 17:38:00,
2013-07-19 13:54:00,96.8,76.2,29.91,NE,45,0.0,-999.0,52,-99.99,,,0.00,Acu-Link.com,2013-07-19 17:54:00,
2013-07-19 14:09:00,95.7,76.3,29.91,West,270,3.2,-999.0,54,-99.99,,,0.00,Acu-Link.com,2013-07-19 18:09:00,
2013-07-19 14:24:00,96.8,77.9,29.90,WSW,247,6.3,-999.0,55,-99.99,,,0.00,Acu-Link.com,2013-07-19 18:24:00,
2013-07-19 14:39:00,96.4,76.4,29.90,SW,225,1.1,-999.0,53,-99.99,,,0.00,Acu-Link.com,2013-07-19 18:39:00,
2013-07-19 14:55:00,96.3,74.6,29.89,WSW,247,3.2,-999.0,50,-99.99,,,0.00,Acu-Link.com,2013-07-19 18:55:00,
2013-07-19 15:10:00,95.5,74.4,29.89,WNW,292,5.3,-999.0,51,-99.99,,,0.00,Acu-Link.com,2013-07-19 19:10:00,
2013-07-19 15:25:00,95.9,74.2,29.88,SSW,202,1.7,-999.0,50,-99.99,,,0.00,Acu-Link.com,2013-07-19 19:25:00,
2013-07-19 15:40:00,95.4,74.9,29.88,South,180,5.3,-999.0,52,-99.99,,,0.00,Acu-Link.com,2013-07-19 19:40:00,
2013-07-19 15:55:00,95.2,75.3,29.87,WSW,247,4.2,-999.0,53,-99.99,,,0.00,Acu-Link.com,2013-07-19 19:55:00,
2013-07-19 16:11:00,95.0,75.7,29.86,West,270,4.7,-999.0,54,-99.99,,,0.00,Acu-Link.com,2013-07-19 20:11:00,
2013-07-19 16:26:00,94.8,74.4,29.86,West,270,4.7,-999.0,52,-99.99,,,0.00,Acu-Link.com,2013-07-19 20:26:00,
2013-07-19 16:41:00,94.5,75.2,29.86,West,270,3.7,-999.0,54,-99.99,,,0.00,Acu-Link.com,2013-07-19 20:41:00,
2013-07-19 16:56:00,94.5,75.8,29.86,SSW,202,6.3,-999.0,55,-99.99,,,0.00,Acu-Link.com,2013-07-19 20:56:00,
2013-07-19 17:11:00,93.7,76.1,29.85,NNE,22,1.1,-999.0,57,-99.99,,,0.00,Acu-Link.com,2013-07-19 21:11:00,
2013-07-19 17:27:00,93.6,76.0,29.85,SE,135,4.2,-999.0,57,-99.99,,,0.00,Acu-Link.com,2013-07-19 21:27:00,
2013-07-19 17:42:00,96.6,77.7,29.85,NNE,22,2.2,-999.0,55,-99.99,,,0.00,Acu-Link.com,2013-07-19 21:42:00,
2013-07-19 17:57:00,96.4,77.5,29.84,ESE,112,2.2,-999.0,55,-99.99,,,0.00,Acu-Link.com,2013-07-19 21:57:00,
2013-07-19 18:12:00,95.2,77.0,29.85,WNW,292,8.9,-999.0,56,-99.99,,,0.00,Acu-Link.com,2013-07-19 22:12:00,
2013-07-19 18:28:00,95.0,77.3,29.85,WSW,247,4.7,-999.0,57,-99.99,,,0.00,Acu-Link.com,2013-07-19 22:28:00,
2013-07-19 18:43:00,93.4,76.4,29.86,WSW,247,4.2,-999.0,58,-99.99,,,0.00,Acu-Link.com,2013-07-19 22:43:00,
2013-07-19 18:58:00,91.8,75.9,29.86,NNW,337,6.3,-999.0,60,-99.99,,,0.00,Acu-Link.com,2013-07-19 22:58:00,
2013-07-19 19:13:00,90.5,75.2,29.85,WSW,247,5.3,-999.0,61,-99.99,,,0.00,Acu-Link.com,2013-07-19 23:13:00,
2013-07-19 19:28:00,89.1,74.3,29.85,South,180,4.2,-999.0,62,-99.99,,,0.00,Acu-Link.com,2013-07-19 23:28:00,
2013-07-19 19:44:00,87.3,74.1,29.85,West,270,2.2,-999.0,65,-99.99,,,0.00,Acu-Link.com,2013-07-19 23:44:00,
2013-07-19 19:59:00,86.5,74.2,29.85,SE,135,2.2,-999.0,67,-99.99,,,0.00,Acu-Link.com,2013-07-19 23:59:00,
2013-07-19 20:14:00,85.5,74.1,29.85,SSE,157,1.7,-999.0,69,-99.99,,,0.00,Acu-Link.com,2013-07-20 00:14:00,
2013-07-19 20:29:00,84.9,74.0,29.86,West,270,0.0,-999.0,70,-99.99,,,0.00,Acu-Link.com,2013-07-20 00:29:00,
2013-07-19 20:44:00,84.2,74.2,29.86,SSE,157,0.0,-999.0,72,-99.99,,,0.00,Acu-Link.com,2013-07-20 00:44:00,
2013-07-19 21:00:00,83.7,74.1,29.86,SSW,202,0.0,-999.0,73,-99.99,,,0.00,Acu-Link.com,2013-07-20 01:00:00,
2013-07-19 21:15:00,82.9,74.1,29.86,East,90,0.0,-999.0,75,-99.99,,,0.00,Acu-Link.com,2013-07-20 01:15:00,
2013-07-19 21:30:00,82.6,74.2,29.87,NNW,337,0.0,-999.0,76,-99.99,,,0.00,Acu-Link.com,2013-07-20 01:30:00,
2013-07-19 21:45:00,82.0,74.1,29.86,NW,315,1.1,-999.0,77,-99.99,,,0.00,Acu-Link.com,2013-07-20 01:45:00,
2013-07-19 22:00:00,81.9,74.3,29.86,NNE,22,0.0,-999.0,78,-99.99,,,0.00,Acu-Link.com,2013-07-20 02:00:00,
2013-07-19 22:16:00,81.9,74.3,29.86,WSW,247,1.1,-999.0,78,-99.99,,,0.00,Acu-Link.com,2013-07-20 02:16:00,
2013-07-19 22:31:00,81.5,74.3,29.85,East,90,0.0,-999.0,79,-99.99,,,0.00,Acu-Link.com,2013-07-20 02:31:00,
2013-07-19 22:46:00,81.5,74.3,29.85,South,180,2.2,-999.0,79,-99.99,,,0.00,Acu-Link.com,2013-07-20 02:46:00,
2013-07-19 23:01:00,81.9,74.7,29.84,South,180,3.2,-999.0,79,-99.99,,,0.00,Acu-Link.com,2013-07-20 03:01:00,
2013-07-19 23:16:00,81.7,74.5,29.84,South,180,1.7,-999.0,79,-99.99,,,0.00,Acu-Link.com,2013-07-20 03:16:00,
2013-07-19 23:32:00,81.7,74.5,29.84,South,180,4.7,-999.0,79,-99.99,,,0.00,Acu-Link.com,2013-07-20 03:32:00,
2013-07-19 23:47:00,82.2,74.6,29.84,WSW,247,3.7,-999.0,78,-99.99,,,0.00,Acu-Link.com,2013-07-20 03:47:00,